sensor_id;sensor_type;location;lat;lon;timestamp;temperature;humidity
49218;DHT22;35045;51.194;7.268;2022-07-29T00:01:59;18.80;91.10
49218;DHT22;35045;51.194;7.268;2022-07-29T00:04:24;18.90;91.10
49218;DHT22;35045;51.194;7.268;2022-07-29T00:06:49;18.90;91.00
49218;DHT22;35045;51.194;7.268;2022-07-29T00:09:14;18.80;91.00
49218;DHT22;35045;51.194;7.268;2022-07-29T00:11:39;18.80;91.10
49218;DHT22;35045;51.194;7.268;2022-07-29T00:14:04;18.80;91.20
49218;DHT22;35045;51.194;7.268;2022-07-29T00:16:29;18.70;91.20
49218;DHT22;35045;51.194;7.268;2022-07-29T00:18:55;18.70;91.30
49218;DHT22;35045;51.194;7.268;2022-07-29T00:21:20;18.60;91.40
49218;DHT22;35045;51.194;7.268;2022-07-29T00:23:45;18.60;91.50
49218;DHT22;35045;51.194;7.268;2022-07-29T00:26:10;18.60;91.50
49218;DHT22;35045;51.194;7.268;2022-07-29T00:28:35;18.60;91.60
49218;DHT22;35045;51.194;7.268;2022-07-29T00:31:00;18.60;91.70
49218;DHT22;35045;51.194;7.268;2022-07-29T00:33:25;18.60;91.80
49218;DHT22;35045;51.194;7.268;2022-07-29T00:35:50;18.60;91.80
49218;DHT22;35045;51.194;7.268;2022-07-29T00:38:17;18.60;91.80
49218;DHT22;35045;51.194;7.268;2022-07-29T00:40:43;18.60;91.80
49218;DHT22;35045;51.194;7.268;2022-07-29T00:43:08;18.60;91.80
49218;DHT22;35045;51.194;7.268;2022-07-29T00:45:33;18.50;91.70
49218;DHT22;35045;51.194;7.268;2022-07-29T00:47:59;18.50;91.80
49218;DHT22;35045;51.194;7.268;2022-07-29T00:50:24;18.50;91.80
49218;DHT22;35045;51.194;7.268;2022-07-29T00:52:50;18.50;91.80
49218;DHT22;35045;51.194;7.268;2022-07-29T00:55:16;18.50;92.00
49218;DHT22;35045;51.194;7.268;2022-07-29T00:57:42;18.50;91.80
49218;DHT22;35045;51.194;7.268;2022-07-29T01:00:09;18.50;91.90
49218;DHT22;35045;51.194;7.268;2022-07-29T01:02:35;18.60;91.70
49218;DHT22;35045;51.194;7.268;2022-07-29T01:05:00;18.50;91.70
49218;DHT22;35045;51.194;7.268;2022-07-29T01:07:26;18.60;91.80
49218;DHT22;35045;51.194;7.268;2022-07-29T01:09:53;18.50;91.70
49218;DHT22;35045;51.194;7.268;2022-07-29T01:12:27;18.50;91.60
49218;DHT22;35045;51.194;7.268;2022-07-29T01:14:54;18.50;91.70
49218;DHT22;35045;51.194;7.268;2022-07-29T01:22:25;18.50;91.70
49218;DHT22;35045;51.194;7.268;2022-07-29T01:25:12;18.50;91.70
49218;DHT22;35045;51.194;7.268;2022-07-29T01:30:14;18.50;91.70
49218;DHT22;35045;51.194;7.268;2022-07-29T01:32:41;18.50;91.70
49218;DHT22;35045;51.194;7.268;2022-07-29T01:35:23;18.50;92.40
49218;DHT22;35045;51.194;7.268;2022-07-29T01:38:01;18.50;92.30
49218;DHT22;35045;51.194;7.268;2022-07-29T01:40:48;18.50;92.50
49218;DHT22;35045;51.194;7.268;2022-07-29T01:43:17;18.50;91.90
49218;DHT22;35045;51.194;7.268;2022-07-29T01:45:47;18.50;91.70
49218;DHT22;35045;51.194;7.268;2022-07-29T01:48:27;18.50;91.60
49218;DHT22;35045;51.194;7.268;2022-07-29T01:51:05;18.50;91.90
49218;DHT22;35045;51.194;7.268;2022-07-29T01:53:55;18.50;92.30
49218;DHT22;35045;51.194;7.268;2022-07-29T01:56:24;18.50;92.70
49218;DHT22;35045;51.194;7.268;2022-07-29T01:58:54;18.60;92.70
49218;DHT22;35045;51.194;7.268;2022-07-29T02:01:19;18.60;92.40
49218;DHT22;35045;51.194;7.268;2022-07-29T02:03:46;18.60;92.40
49218;DHT22;35045;51.194;7.268;2022-07-29T02:06:15;18.60;92.30
49218;DHT22;35045;51.194;7.268;2022-07-29T02:08:41;18.60;92.20
49218;DHT22;35045;51.194;7.268;2022-07-29T02:11:08;18.50;92.20
49218;DHT22;35045;51.194;7.268;2022-07-29T02:13:35;18.50;92.40
49218;DHT22;35045;51.194;7.268;2022-07-29T02:16:02;18.40;92.10
49218;DHT22;35045;51.194;7.268;2022-07-29T02:18:30;18.40;92.10
49218;DHT22;35045;51.194;7.268;2022-07-29T02:20:56;18.40;92.60
49218;DHT22;35045;51.194;7.268;2022-07-29T02:23:24;18.40;92.30
49218;DHT22;35045;51.194;7.268;2022-07-29T02:25:52;18.40;92.50
49218;DHT22;35045;51.194;7.268;2022-07-29T02:28:19;18.40;92.60
49218;DHT22;35045;51.194;7.268;2022-07-29T02:30:45;18.40;93.00
49218;DHT22;35045;51.194;7.268;2022-07-29T02:33:13;18.40;93.10
49218;DHT22;35045;51.194;7.268;2022-07-29T02:35:40;18.40;93.00
49218;DHT22;35045;51.194;7.268;2022-07-29T02:38:08;18.40;93.90
49218;DHT22;35045;51.194;7.268;2022-07-29T02:40:53;18.40;93.90
49218;DHT22;35045;51.194;7.268;2022-07-29T02:43:21;18.30;93.70
49218;DHT22;35045;51.194;7.268;2022-07-29T02:45:47;18.30;93.60
49218;DHT22;35045;51.194;7.268;2022-07-29T02:48:16;18.30;92.50
49218;DHT22;35045;51.194;7.268;2022-07-29T02:50:51;18.30;92.20
49218;DHT22;35045;51.194;7.268;2022-07-29T02:53:19;18.30;92.30
49218;DHT22;35045;51.194;7.268;2022-07-29T02:56:06;18.40;92.90
49218;DHT22;35045;51.194;7.268;2022-07-29T02:58:34;18.40;92.10
49218;DHT22;35045;51.194;7.268;2022-07-29T03:01:23;18.50;92.70
49218;DHT22;35045;51.194;7.268;2022-07-29T03:03:50;18.50;92.50
49218;DHT22;35045;51.194;7.268;2022-07-29T03:06:18;18.50;92.40
49218;DHT22;35045;51.194;7.268;2022-07-29T03:08:45;18.50;93.20
49218;DHT22;35045;51.194;7.268;2022-07-29T03:11:12;18.60;92.90
49218;DHT22;35045;51.194;7.268;2022-07-29T03:13:38;18.50;92.80
49218;DHT22;35045;51.194;7.268;2022-07-29T03:16:04;18.50;92.30
49218;DHT22;35045;51.194;7.268;2022-07-29T03:18:30;18.50;91.90
49218;DHT22;35045;51.194;7.268;2022-07-29T03:20:55;18.50;92.20
49218;DHT22;35045;51.194;7.268;2022-07-29T03:23:22;18.50;92.90
49218;DHT22;35045;51.194;7.268;2022-07-29T03:25:49;18.50;92.10
49218;DHT22;35045;51.194;7.268;2022-07-29T03:28:14;18.50;91.30
49218;DHT22;35045;51.194;7.268;2022-07-29T03:30:39;18.50;91.50
49218;DHT22;35045;51.194;7.268;2022-07-29T03:33:04;18.60;91.50
49218;DHT22;35045;51.194;7.268;2022-07-29T03:35:29;18.60;91.50
49218;DHT22;35045;51.194;7.268;2022-07-29T03:37:56;18.60;91.00
49218;DHT22;35045;51.194;7.268;2022-07-29T03:43:03;18.60;92.10
49218;DHT22;35045;51.194;7.268;2022-07-29T03:45:30;18.60;92.00
49218;DHT22;35045;51.194;7.268;2022-07-29T03:48:00;18.70;91.80
49218;DHT22;35045;51.194;7.268;2022-07-29T03:50:26;18.60;90.80
49218;DHT22;35045;51.194;7.268;2022-07-29T03:52:52;18.60;91.00
49218;DHT22;35045;51.194;7.268;2022-07-29T03:55:17;18.60;91.30
49218;DHT22;35045;51.194;7.268;2022-07-29T03:57:44;18.60;91.50
49218;DHT22;35045;51.194;7.268;2022-07-29T04:00:11;18.60;91.90
49218;DHT22;35045;51.194;7.268;2022-07-29T04:02:36;18.50;92.20
49218;DHT22;35045;51.194;7.268;2022-07-29T04:05:02;18.30;91.50
49218;DHT22;35045;51.194;7.268;2022-07-29T04:07:27;18.30;91.10
49218;DHT22;35045;51.194;7.268;2022-07-29T04:09:53;18.30;91.30
49218;DHT22;35045;51.194;7.268;2022-07-29T04:12:18;18.30;91.00
49218;DHT22;35045;51.194;7.268;2022-07-29T04:14:45;18.20;91.50
49218;DHT22;35045;51.194;7.268;2022-07-29T04:17:10;18.30;91.60
49218;DHT22;35045;51.194;7.268;2022-07-29T04:19:35;18.30;91.80
49218;DHT22;35045;51.194;7.268;2022-07-29T04:22:01;18.20;91.90
49218;DHT22;35045;51.194;7.268;2022-07-29T04:24:26;18.20;92.20
49218;DHT22;35045;51.194;7.268;2022-07-29T04:26:52;18.10;92.30
49218;DHT22;35045;51.194;7.268;2022-07-29T04:29:16;18.10;92.70
49218;DHT22;35045;51.194;7.268;2022-07-29T04:31:42;18.10;92.80
49218;DHT22;35045;51.194;7.268;2022-07-29T04:34:07;18.00;92.90
49218;DHT22;35045;51.194;7.268;2022-07-29T04:36:32;18.00;93.10
49218;DHT22;35045;51.194;7.268;2022-07-29T04:38:57;17.90;93.80
49218;DHT22;35045;51.194;7.268;2022-07-29T04:41:22;17.80;93.50
49218;DHT22;35045;51.194;7.268;2022-07-29T04:43:47;17.80;93.70
49218;DHT22;35045;51.194;7.268;2022-07-29T04:46:13;17.70;93.80
49218;DHT22;35045;51.194;7.268;2022-07-29T04:48:38;17.60;94.30
49218;DHT22;35045;51.194;7.268;2022-07-29T04:51:03;17.50;94.60
49218;DHT22;35045;51.194;7.268;2022-07-29T04:53:28;17.50;94.80
49218;DHT22;35045;51.194;7.268;2022-07-29T04:55:53;17.40;94.90
49218;DHT22;35045;51.194;7.268;2022-07-29T04:58:18;17.20;95.00
49218;DHT22;35045;51.194;7.268;2022-07-29T05:00:43;17.20;95.10
49218;DHT22;35045;51.194;7.268;2022-07-29T05:03:08;17.10;95.30
49218;DHT22;35045;51.194;7.268;2022-07-29T05:05:33;17.10;95.50
49218;DHT22;35045;51.194;7.268;2022-07-29T05:07:58;17.00;95.40
49218;DHT22;35045;51.194;7.268;2022-07-29T05:10:23;17.00;95.50
49218;DHT22;35045;51.194;7.268;2022-07-29T05:12:48;17.00;95.40
49218;DHT22;35045;51.194;7.268;2022-07-29T05:15:13;16.80;95.60
49218;DHT22;35045;51.194;7.268;2022-07-29T05:17:38;16.80;95.80
49218;DHT22;35045;51.194;7.268;2022-07-29T05:20:04;16.80;96.10
49218;DHT22;35045;51.194;7.268;2022-07-29T05:22:30;16.80;96.10
49218;DHT22;35045;51.194;7.268;2022-07-29T05:24:55;16.70;96.10
49218;DHT22;35045;51.194;7.268;2022-07-29T05:27:20;16.70;96.20
49218;DHT22;35045;51.194;7.268;2022-07-29T05:29:45;16.70;96.30
49218;DHT22;35045;51.194;7.268;2022-07-29T05:32:10;16.80;96.30
49218;DHT22;35045;51.194;7.268;2022-07-29T05:34:35;16.80;96.40
49218;DHT22;35045;51.194;7.268;2022-07-29T05:37:00;16.80;96.40
49218;DHT22;35045;51.194;7.268;2022-07-29T05:39:25;16.80;96.60
49218;DHT22;35045;51.194;7.268;2022-07-29T05:41:50;16.90;96.40
49218;DHT22;35045;51.194;7.268;2022-07-29T05:44:15;16.90;96.70
49218;DHT22;35045;51.194;7.268;2022-07-29T05:46:40;16.80;96.50
49218;DHT22;35045;51.194;7.268;2022-07-29T05:49:05;16.90;96.50
49218;DHT22;35045;51.194;7.268;2022-07-29T05:51:31;16.90;96.40
49218;DHT22;35045;51.194;7.268;2022-07-29T05:53:56;16.90;96.50
49218;DHT22;35045;51.194;7.268;2022-07-29T05:56:21;17.00;96.50
49218;DHT22;35045;51.194;7.268;2022-07-29T05:58:46;16.90;96.60
49218;DHT22;35045;51.194;7.268;2022-07-29T06:01:11;16.90;96.70
49218;DHT22;35045;51.194;7.268;2022-07-29T06:03:36;16.90;96.70
49218;DHT22;35045;51.194;7.268;2022-07-29T06:06:02;16.90;96.80
49218;DHT22;35045;51.194;7.268;2022-07-29T06:08:27;17.00;96.70
49218;DHT22;35045;51.194;7.268;2022-07-29T06:10:52;17.00;96.60
49218;DHT22;35045;51.194;7.268;2022-07-29T06:13:17;17.10;96.60
49218;DHT22;35045;51.194;7.268;2022-07-29T06:15:43;17.20;96.60
49218;DHT22;35045;51.194;7.268;2022-07-29T06:18:08;17.40;96.40
49218;DHT22;35045;51.194;7.268;2022-07-29T06:20:35;17.50;96.40
49218;DHT22;35045;51.194;7.268;2022-07-29T06:23:00;17.60;96.20
49218;DHT22;35045;51.194;7.268;2022-07-29T06:25:25;17.70;96.50
49218;DHT22;35045;51.194;7.268;2022-07-29T06:27:50;17.80;96.40
49218;DHT22;35045;51.194;7.268;2022-07-29T06:30:15;17.90;96.50
49218;DHT22;35045;51.194;7.268;2022-07-29T06:32:40;17.90;96.40
49218;DHT22;35045;51.194;7.268;2022-07-29T06:35:06;17.90;96.30
49218;DHT22;35045;51.194;7.268;2022-07-29T06:37:31;17.90;95.90
49218;DHT22;35045;51.194;7.268;2022-07-29T06:39:56;17.90;95.80
49218;DHT22;35045;51.194;7.268;2022-07-29T06:42:43;17.90;95.90
49218;DHT22;35045;51.194;7.268;2022-07-29T06:45:10;18.00;95.70
49218;DHT22;35045;51.194;7.268;2022-07-29T06:47:35;18.10;95.60
49218;DHT22;35045;51.194;7.268;2022-07-29T06:50:00;18.20;95.40
49218;DHT22;35045;51.194;7.268;2022-07-29T06:52:25;18.30;95.50
49218;DHT22;35045;51.194;7.268;2022-07-29T06:54:50;18.40;95.40
49218;DHT22;35045;51.194;7.268;2022-07-29T06:57:15;18.50;95.30
49218;DHT22;35045;51.194;7.268;2022-07-29T06:59:40;18.60;95.30
49218;DHT22;35045;51.194;7.268;2022-07-29T07:02:06;18.80;95.20
49218;DHT22;35045;51.194;7.268;2022-07-29T07:04:31;19.10;95.30
49218;DHT22;35045;51.194;7.268;2022-07-29T07:06:56;19.20;94.90
49218;DHT22;35045;51.194;7.268;2022-07-29T07:09:21;19.30;94.80
49218;DHT22;35045;51.194;7.268;2022-07-29T07:11:46;19.50;94.60
49218;DHT22;35045;51.194;7.268;2022-07-29T07:14:11;19.70;94.60
49218;DHT22;35045;51.194;7.268;2022-07-29T07:16:36;19.80;94.20
49218;DHT22;35045;51.194;7.268;2022-07-29T07:19:01;19.90;94.10
49218;DHT22;35045;51.194;7.268;2022-07-29T07:21:27;20.00;94.20
49218;DHT22;35045;51.194;7.268;2022-07-29T07:23:52;20.30;93.60
49218;DHT22;35045;51.194;7.268;2022-07-29T07:26:17;20.60;92.90
49218;DHT22;35045;51.194;7.268;2022-07-29T07:28:42;20.80;92.80
49218;DHT22;35045;51.194;7.268;2022-07-29T07:31:07;20.80;92.60
49218;DHT22;35045;51.194;7.268;2022-07-29T07:33:32;20.90;92.20
49218;DHT22;35045;51.194;7.268;2022-07-29T07:35:57;20.90;91.90
49218;DHT22;35045;51.194;7.268;2022-07-29T07:38:22;20.90;91.70
49218;DHT22;35045;51.194;7.268;2022-07-29T07:40:47;20.80;91.10
49218;DHT22;35045;51.194;7.268;2022-07-29T07:43:12;20.80;91.60
49218;DHT22;35045;51.194;7.268;2022-07-29T07:45:37;20.80;91.70
49218;DHT22;35045;51.194;7.268;2022-07-29T07:48:02;20.80;92.00
49218;DHT22;35045;51.194;7.268;2022-07-29T07:50:28;20.80;91.60
49218;DHT22;35045;51.194;7.268;2022-07-29T07:52:54;20.80;91.60
49218;DHT22;35045;51.194;7.268;2022-07-29T07:55:22;20.80;92.30
49218;DHT22;35045;51.194;7.268;2022-07-29T07:57:47;20.90;92.10
49218;DHT22;35045;51.194;7.268;2022-07-29T08:00:13;20.90;92.30
49218;DHT22;35045;51.194;7.268;2022-07-29T08:02:39;21.00;92.60
49218;DHT22;35045;51.194;7.268;2022-07-29T08:05:04;20.90;92.30
49218;DHT22;35045;51.194;7.268;2022-07-29T08:07:29;20.90;91.50
49218;DHT22;35045;51.194;7.268;2022-07-29T08:09:54;20.80;91.60
49218;DHT22;35045;51.194;7.268;2022-07-29T08:12:19;20.80;91.60
49218;DHT22;35045;51.194;7.268;2022-07-29T08:14:44;20.70;92.00
49218;DHT22;35045;51.194;7.268;2022-07-29T08:17:09;20.70;91.70
49218;DHT22;35045;51.194;7.268;2022-07-29T08:19:35;20.70;92.20
49218;DHT22;35045;51.194;7.268;2022-07-29T08:22:01;20.70;92.30
49218;DHT22;35045;51.194;7.268;2022-07-29T08:24:26;20.70;92.70
49218;DHT22;35045;51.194;7.268;2022-07-29T08:27:17;20.60;93.00
49218;DHT22;35045;51.194;7.268;2022-07-29T08:29:42;20.60;93.00
49218;DHT22;35045;51.194;7.268;2022-07-29T08:32:07;20.60;93.10
49218;DHT22;35045;51.194;7.268;2022-07-29T08:34:32;20.70;93.60
49218;DHT22;35045;51.194;7.268;2022-07-29T08:36:58;20.70;93.20
49218;DHT22;35045;51.194;7.268;2022-07-29T08:39:23;20.80;93.80
49218;DHT22;35045;51.194;7.268;2022-07-29T08:41:49;20.80;93.20
49218;DHT22;35045;51.194;7.268;2022-07-29T08:44:18;21.00;93.40
49218;DHT22;35045;51.194;7.268;2022-07-29T08:46:44;21.10;93.10
49218;DHT22;35045;51.194;7.268;2022-07-29T08:49:09;21.10;92.80
49218;DHT22;35045;51.194;7.268;2022-07-29T08:51:36;21.20;92.40
49218;DHT22;35045;51.194;7.268;2022-07-29T08:54:03;21.10;92.90
49218;DHT22;35045;51.194;7.268;2022-07-29T08:56:29;21.10;92.90
49218;DHT22;35045;51.194;7.268;2022-07-29T08:58:54;21.20;92.80
49218;DHT22;35045;51.194;7.268;2022-07-29T09:01:25;21.20;93.20
49218;DHT22;35045;51.194;7.268;2022-07-29T09:03:54;21.20;93.40
49218;DHT22;35045;51.194;7.268;2022-07-29T09:06:21;21.20;92.90
49218;DHT22;35045;51.194;7.268;2022-07-29T09:08:46;21.00;92.70
49218;DHT22;35045;51.194;7.268;2022-07-29T09:11:12;21.00;93.20
49218;DHT22;35045;51.194;7.268;2022-07-29T09:13:37;21.00;93.60
49218;DHT22;35045;51.194;7.268;2022-07-29T09:16:02;21.00;93.70
49218;DHT22;35045;51.194;7.268;2022-07-29T09:18:34;20.90;93.70
49218;DHT22;35045;51.194;7.268;2022-07-29T09:21:00;20.80;93.40
49218;DHT22;35045;51.194;7.268;2022-07-29T09:24:13;20.60;93.70
49218;DHT22;35045;51.194;7.268;2022-07-29T09:26:43;20.50;93.70
49218;DHT22;35045;51.194;7.268;2022-07-29T09:29:22;20.40;93.90
49218;DHT22;35045;51.194;7.268;2022-07-29T09:31:50;20.30;94.00
49218;DHT22;35045;51.194;7.268;2022-07-29T09:34:27;20.20;94.30
49218;DHT22;35045;51.194;7.268;2022-07-29T09:36:54;20.20;94.90
49218;DHT22;35045;51.194;7.268;2022-07-29T09:39:33;20.20;94.70
49218;DHT22;35045;51.194;7.268;2022-07-29T09:42:01;20.20;95.10
49218;DHT22;35045;51.194;7.268;2022-07-29T09:44:26;20.30;94.60
49218;DHT22;35045;51.194;7.268;2022-07-29T09:47:00;20.40;94.70
49218;DHT22;35045;51.194;7.268;2022-07-29T09:49:32;20.50;94.80
49218;DHT22;35045;51.194;7.268;2022-07-29T09:52:08;20.50;94.70
49218;DHT22;35045;51.194;7.268;2022-07-29T09:54:34;20.70;94.70
49218;DHT22;35045;51.194;7.268;2022-07-29T09:57:07;20.90;94.80
49218;DHT22;35045;51.194;7.268;2022-07-29T09:59:34;21.20;94.30
49218;DHT22;35045;51.194;7.268;2022-07-29T10:01:59;21.50;93.80
49218;DHT22;35045;51.194;7.268;2022-07-29T10:04:39;21.70;94.10
49218;DHT22;35045;51.194;7.268;2022-07-29T10:07:04;22.00;93.90
49218;DHT22;35045;51.194;7.268;2022-07-29T10:09:30;22.10;93.40
49218;DHT22;35045;51.194;7.268;2022-07-29T10:12:12;22.20;92.90
49218;DHT22;35045;51.194;7.268;2022-07-29T10:14:42;22.50;92.40
49218;DHT22;35045;51.194;7.268;2022-07-29T10:17:08;22.80;92.00
49218;DHT22;35045;51.194;7.268;2022-07-29T10:19:36;23.00;91.00
49218;DHT22;35045;51.194;7.268;2022-07-29T10:22:06;23.20;90.10
49218;DHT22;35045;51.194;7.268;2022-07-29T10:24:32;23.30;90.00
49218;DHT22;35045;51.194;7.268;2022-07-29T10:26:59;23.40;90.10
49218;DHT22;35045;51.194;7.268;2022-07-29T10:29:25;23.60;90.10
49218;DHT22;35045;51.194;7.268;2022-07-29T10:40:00;24.30;88.00
49218;DHT22;35045;51.194;7.268;2022-07-29T10:42:49;24.40;87.30
49218;DHT22;35045;51.194;7.268;2022-07-29T10:45:17;24.60;86.80
49218;DHT22;35045;51.194;7.268;2022-07-29T10:47:42;24.60;87.30
49218;DHT22;35045;51.194;7.268;2022-07-29T10:50:07;24.40;87.10
49218;DHT22;35045;51.194;7.268;2022-07-29T10:52:52;24.30;87.40
49218;DHT22;35045;51.194;7.268;2022-07-29T10:55:43;24.30;88.00
49218;DHT22;35045;51.194;7.268;2022-07-29T10:58:20;24.40;87.90
49218;DHT22;35045;51.194;7.268;2022-07-29T11:00:48;24.60;87.10
49218;DHT22;35045;51.194;7.268;2022-07-29T11:03:45;24.70;86.40
49218;DHT22;35045;51.194;7.268;2022-07-29T11:06:11;24.70;84.70
49218;DHT22;35045;51.194;7.268;2022-07-29T11:08:36;24.60;84.60
49218;DHT22;35045;51.194;7.268;2022-07-29T11:16:11;24.20;85.80
49218;DHT22;35045;51.194;7.268;2022-07-29T11:18:36;24.20;86.10
49218;DHT22;35045;51.194;7.268;2022-07-29T11:21:01;24.30;86.20
49218;DHT22;35045;51.194;7.268;2022-07-29T11:23:30;24.30;88.50
49218;DHT22;35045;51.194;7.268;2022-07-29T11:28:53;24.40;88.60
49218;DHT22;35045;51.194;7.268;2022-07-29T11:31:38;24.40;90.10
49218;DHT22;35045;51.194;7.268;2022-07-29T11:34:25;24.40;90.00
49218;DHT22;35045;51.194;7.268;2022-07-29T11:39:45;24.60;89.60
49218;DHT22;35045;51.194;7.268;2022-07-29T11:47:22;25.10;88.70
49218;DHT22;35045;51.194;7.268;2022-07-29T11:49:48;25.20;89.00
49218;DHT22;35045;51.194;7.268;2022-07-29T11:52:16;25.30;89.30
49218;DHT22;35045;51.194;7.268;2022-07-29T11:54:42;25.50;89.40
49218;DHT22;35045;51.194;7.268;2022-07-29T11:57:08;25.40;88.10
49218;DHT22;35045;51.194;7.268;2022-07-29T11:59:42;25.50;87.00
49218;DHT22;35045;51.194;7.268;2022-07-29T12:02:08;25.40;87.00
49218;DHT22;35045;51.194;7.268;2022-07-29T12:04:33;25.20;88.10
49218;DHT22;35045;51.194;7.268;2022-07-29T12:06:59;25.20;89.20
49218;DHT22;35045;51.194;7.268;2022-07-29T12:09:25;25.40;88.30
49218;DHT22;35045;51.194;7.268;2022-07-29T12:11:55;25.50;88.10
49218;DHT22;35045;51.194;7.268;2022-07-29T12:14:31;25.50;87.70
49218;DHT22;35045;51.194;7.268;2022-07-29T12:16:57;25.70;89.50
49218;DHT22;35045;51.194;7.268;2022-07-29T12:19:41;25.90;87.70
49218;DHT22;35045;51.194;7.268;2022-07-29T12:22:10;26.00;87.20
49218;DHT22;35045;51.194;7.268;2022-07-29T12:24:47;26.10;87.30
49218;DHT22;35045;51.194;7.268;2022-07-29T12:27:17;26.00;87.20
49218;DHT22;35045;51.194;7.268;2022-07-29T12:29:42;25.90;87.00
49218;DHT22;35045;51.194;7.268;2022-07-29T12:32:17;25.80;86.70
49218;DHT22;35045;51.194;7.268;2022-07-29T12:34:42;26.00;87.50
49218;DHT22;35045;51.194;7.268;2022-07-29T12:37:09;26.30;87.00
49218;DHT22;35045;51.194;7.268;2022-07-29T12:39:35;26.20;86.00
49218;DHT22;35045;51.194;7.268;2022-07-29T12:42:00;26.20;86.90
49218;DHT22;35045;51.194;7.268;2022-07-29T12:44:48;26.30;86.80
49218;DHT22;35045;51.194;7.268;2022-07-29T12:47:13;26.30;85.20
49218;DHT22;35045;51.194;7.268;2022-07-29T12:49:38;26.20;86.00
49218;DHT22;35045;51.194;7.268;2022-07-29T12:52:37;26.20;84.90
49218;DHT22;35045;51.194;7.268;2022-07-29T12:54:55;26.40;85.40
49218;DHT22;35045;51.194;7.268;2022-07-29T12:57:20;26.40;84.00
49218;DHT22;35045;51.194;7.268;2022-07-29T13:00:05;26.60;85.00
49218;DHT22;35045;51.194;7.268;2022-07-29T13:02:32;26.70;84.80
49218;DHT22;35045;51.194;7.268;2022-07-29T13:04:59;26.50;86.20
49218;DHT22;35045;51.194;7.268;2022-07-29T13:07:29;26.50;85.00
49218;DHT22;35045;51.194;7.268;2022-07-29T13:10:13;26.50;84.50
49218;DHT22;35045;51.194;7.268;2022-07-29T13:12:43;26.40;83.90
49218;DHT22;35045;51.194;7.268;2022-07-29T13:15:24;26.50;84.00
49218;DHT22;35045;51.194;7.268;2022-07-29T13:17:49;26.70;82.90
49218;DHT22;35045;51.194;7.268;2022-07-29T13:20:14;27.00;84.00
49218;DHT22;35045;51.194;7.268;2022-07-29T13:22:40;27.00;84.10
49218;DHT22;35045;51.194;7.268;2022-07-29T13:25:05;27.20;84.10
49218;DHT22;35045;51.194;7.268;2022-07-29T13:27:35;27.20;82.60
49218;DHT22;35045;51.194;7.268;2022-07-29T13:30:04;27.10;82.20
49218;DHT22;35045;51.194;7.268;2022-07-29T13:32:30;26.70;82.70
49218;DHT22;35045;51.194;7.268;2022-07-29T13:35:01;26.50;83.20
49218;DHT22;35045;51.194;7.268;2022-07-29T13:37:27;26.30;84.10
49218;DHT22;35045;51.194;7.268;2022-07-29T13:39:54;26.30;83.90
49218;DHT22;35045;51.194;7.268;2022-07-29T13:42:20;26.30;83.80
49218;DHT22;35045;51.194;7.268;2022-07-29T13:44:45;26.10;83.40
49218;DHT22;35045;51.194;7.268;2022-07-29T13:47:10;26.00;83.90
49218;DHT22;35045;51.194;7.268;2022-07-29T13:49:35;25.90;83.20
49218;DHT22;35045;51.194;7.268;2022-07-29T13:52:01;25.80;83.80
49218;DHT22;35045;51.194;7.268;2022-07-29T13:54:27;25.60;84.20
49218;DHT22;35045;51.194;7.268;2022-07-29T13:56:52;25.90;84.30
49218;DHT22;35045;51.194;7.268;2022-07-29T13:59:17;26.30;83.00
49218;DHT22;35045;51.194;7.268;2022-07-29T14:01:42;26.80;81.80
49218;DHT22;35045;51.194;7.268;2022-07-29T14:04:08;27.10;82.00
49218;DHT22;35045;51.194;7.268;2022-07-29T14:06:34;27.20;81.50
49218;DHT22;35045;51.194;7.268;2022-07-29T14:08:59;27.30;79.20
49218;DHT22;35045;51.194;7.268;2022-07-29T14:11:24;27.40;79.20
49218;DHT22;35045;51.194;7.268;2022-07-29T14:13:49;26.90;80.10
49218;DHT22;35045;51.194;7.268;2022-07-29T14:16:14;27.20;80.20
49218;DHT22;35045;51.194;7.268;2022-07-29T14:18:39;27.10;79.30
49218;DHT22;35045;51.194;7.268;2022-07-29T14:21:04;27.10;79.70
49218;DHT22;35045;51.194;7.268;2022-07-29T14:23:29;27.50;79.40
49218;DHT22;35045;51.194;7.268;2022-07-29T14:25:54;27.70;78.00
49218;DHT22;35045;51.194;7.268;2022-07-29T14:28:19;27.80;77.80
49218;DHT22;35045;51.194;7.268;2022-07-29T14:30:44;28.00;78.30
49218;DHT22;35045;51.194;7.268;2022-07-29T14:33:09;28.00;78.30
49218;DHT22;35045;51.194;7.268;2022-07-29T14:35:34;28.10;78.70
49218;DHT22;35045;51.194;7.268;2022-07-29T14:37:59;28.30;78.10
49218;DHT22;35045;51.194;7.268;2022-07-29T14:40:25;28.90;78.00
49218;DHT22;35045;51.194;7.268;2022-07-29T14:42:50;29.50;77.00
49218;DHT22;35045;51.194;7.268;2022-07-29T14:45:15;29.80;75.90
49218;DHT22;35045;51.194;7.268;2022-07-29T14:47:40;29.80;74.00
49218;DHT22;35045;51.194;7.268;2022-07-29T14:50:06;29.70;74.70
49218;DHT22;35045;51.194;7.268;2022-07-29T14:52:32;29.90;74.70
49218;DHT22;35045;51.194;7.268;2022-07-29T14:54:57;30.20;73.60
49218;DHT22;35045;51.194;7.268;2022-07-29T14:57:22;30.70;73.20
49218;DHT22;35045;51.194;7.268;2022-07-29T14:59:47;31.50;72.40
49218;DHT22;35045;51.194;7.268;2022-07-29T15:02:12;31.30;71.40
49218;DHT22;35045;51.194;7.268;2022-07-29T15:04:37;31.30;70.90
49218;DHT22;35045;51.194;7.268;2022-07-29T15:07:02;32.00;70.70
49218;DHT22;35045;51.194;7.268;2022-07-29T15:09:27;32.30;69.70
49218;DHT22;35045;51.194;7.268;2022-07-29T15:11:52;32.40;69.10
49218;DHT22;35045;51.194;7.268;2022-07-29T15:14:17;32.70;69.00
49218;DHT22;35045;51.194;7.268;2022-07-29T15:16:43;32.80;67.00
49218;DHT22;35045;51.194;7.268;2022-07-29T15:19:11;32.90;67.60
49218;DHT22;35045;51.194;7.268;2022-07-29T15:21:36;33.10;66.90
49218;DHT22;35045;51.194;7.268;2022-07-29T15:24:01;32.90;65.50
49218;DHT22;35045;51.194;7.268;2022-07-29T15:26:26;33.00;66.20
49218;DHT22;35045;51.194;7.268;2022-07-29T15:28:51;33.30;64.90
49218;DHT22;35045;51.194;7.268;2022-07-29T15:31:16;33.30;64.90
49218;DHT22;35045;51.194;7.268;2022-07-29T15:33:43;33.50;65.30
49218;DHT22;35045;51.194;7.268;2022-07-29T15:36:08;33.10;64.20
49218;DHT22;35045;51.194;7.268;2022-07-29T15:38:33;33.50;64.70
49218;DHT22;35045;51.194;7.268;2022-07-29T15:40:58;33.90;63.90
49218;DHT22;35045;51.194;7.268;2022-07-29T15:43:23;34.00;63.60
49218;DHT22;35045;51.194;7.268;2022-07-29T15:45:49;33.80;63.20
49218;DHT22;35045;51.194;7.268;2022-07-29T15:48:46;33.90;63.40
49218;DHT22;35045;51.194;7.268;2022-07-29T15:51:11;34.10;62.90
49218;DHT22;35045;51.194;7.268;2022-07-29T15:53:36;34.10;62.40
49218;DHT22;35045;51.194;7.268;2022-07-29T15:56:02;34.10;61.80
49218;DHT22;35045;51.194;7.268;2022-07-29T15:58:27;34.30;62.10
49218;DHT22;35045;51.194;7.268;2022-07-29T16:00:52;34.00;61.90
49218;DHT22;35045;51.194;7.268;2022-07-29T16:03:17;33.20;63.10
49218;DHT22;35045;51.194;7.268;2022-07-29T16:05:43;33.30;63.40
49218;DHT22;35045;51.194;7.268;2022-07-29T16:08:08;33.30;64.00